createdAt,value
2022-12-05T00:01:44.274Z,20.07
2022-12-05T00:06:47.680Z,20.03
2022-12-05T00:11:50.586Z,20.37
2022-12-05T00:16:53.524Z,18.30
2022-12-05T00:21:57.727Z,19.63
2022-12-05T00:27:00.596Z,20.57
2022-12-05T00:32:03.583Z,19.73
2022-12-05T00:37:06.584Z,18.07
2022-12-05T00:42:09.435Z,18.07
2022-12-05T00:47:12.358Z,17.67
2022-12-05T00:52:15.244Z,15.20
2022-12-05T00:57:18.190Z,15.67
2022-12-05T01:02:21.158Z,15.27
2022-12-05T01:07:24.052Z,16.73
2022-12-05T01:12:28.239Z,16.63
2022-12-05T01:17:31.259Z,17.67
2022-12-05T01:22:34.242Z,18.37
2022-12-05T01:27:37.371Z,14.43
2022-12-05T01:32:40.220Z,14.23
2022-12-05T01:37:43.204Z,13.17
2022-12-05T01:42:46.024Z,13.37
2022-12-05T01:47:48.976Z,14.40
2022-12-05T01:52:51.985Z,12.67
2022-12-05T01:57:57.798Z,13.00
2022-12-05T02:03:08.007Z,12.23
2022-12-05T02:08:13.132Z,11.63
2022-12-05T02:13:59.649Z,11.43
2022-12-05T02:19:32.845Z,13.27
2022-12-05T02:25:01.260Z,12.83
2022-12-05T02:30:10.727Z,13.13
2022-12-05T02:35:18.737Z,10.13
2022-12-05T02:40:43.261Z,12.70
2022-12-05T02:45:53.089Z,11.23
2022-12-05T02:51:00.734Z,11.10
2022-12-05T02:56:05.224Z,9.03
2022-12-05T03:01:08.838Z,8.97
2022-12-05T03:06:33.204Z,11.07
2022-12-05T03:11:47.897Z,9.00
2022-12-05T03:16:55.063Z,10.03
2022-12-05T03:22:15.320Z,10.03
2022-12-05T03:27:51.386Z,9.03
2022-12-05T03:33:08.017Z,9.73
2022-12-05T03:38:18.926Z,10.47
2022-12-05T03:43:46.067Z,9.57
2022-12-05T03:48:48.903Z,10.33
2022-12-05T03:54:13.983Z,12.30
2022-12-05T03:59:34.130Z,10.00
2022-12-05T04:04:49.330Z,9.33
2022-12-05T04:10:00.361Z,9.00
2022-12-05T04:15:22.616Z,9.75
2022-12-05T04:20:59.010Z,9.63
2022-12-05T04:26:23.980Z,7.97
2022-12-05T04:31:39.637Z,10.93
2022-12-05T04:36:55.794Z,11.30
2022-12-05T04:42:04.970Z,12.37
2022-12-05T04:47:12.204Z,11.00
2022-12-05T04:52:15.646Z,12.20
2022-12-05T04:57:26.541Z,11.47
2022-12-05T05:02:40.788Z,11.20
2022-12-05T05:07:54.136Z,17.93
2022-12-05T05:12:57.138Z,15.70
2022-12-05T05:18:00.072Z,30.90
2022-12-05T05:23:02.893Z,21.33
2022-12-05T05:28:05.708Z,21.70
2022-12-05T05:33:08.677Z,26.07
2022-12-05T05:38:11.600Z,18.87
2022-12-05T05:43:14.456Z,14.70
2022-12-05T05:48:17.329Z,20.23
2022-12-05T05:53:20.220Z,22.63
2022-12-05T05:58:23.583Z,17.57
2022-12-05T06:03:27.826Z,14.30
2022-12-05T06:08:33.396Z,13.30
2022-12-05T06:13:37.337Z,12.10
2022-12-05T06:18:40.581Z,15.57
2022-12-05T06:23:43.702Z,15.23
2022-12-05T06:28:47.021Z,13.97
2022-12-05T06:33:50.237Z,17.70
2022-12-05T06:38:53.051Z,15.73
2022-12-05T06:44:01.849Z,16.13
2022-12-05T06:49:05.555Z,17.70
2022-12-05T06:54:08.380Z,15.13
2022-12-05T06:59:11.309Z,14.63
2022-12-05T07:04:24.013Z,16.37
2022-12-05T07:09:46.017Z,16.80
2022-12-05T07:19:53.587Z,28.70
2022-12-05T07:24:56.556Z,23.03
2022-12-05T07:29:59.650Z,17.30
2022-12-05T07:35:02.726Z,16.20
2022-12-05T07:40:06.659Z,17.63
2022-12-05T07:45:10.418Z,16.10
2022-12-05T07:50:15.139Z,22.37
2022-12-05T07:55:18.116Z,18.20
2022-12-05T08:00:22.423Z,14.87
2022-12-05T08:05:25.341Z,17.67
2022-12-05T08:10:28.237Z,15.20
2022-12-05T08:15:35.765Z,17.83
2022-12-05T08:20:38.692Z,14.73
2022-12-05T08:25:41.680Z,15.83
2022-12-05T08:30:44.676Z,15.83
2022-12-05T08:35:47.661Z,17.63
2022-12-05T08:40:50.666Z,17.43
2022-12-05T08:45:54.095Z,16.13
2022-12-05T08:50:57.974Z,17.70
2022-12-05T08:56:06.429Z,14.27
2022-12-05T09:01:13.362Z,24.20
2022-12-05T09:06:16.307Z,19.27
2022-12-05T09:11:25.986Z,18.60
2022-12-05T09:16:37.999Z,16.63
2022-12-05T09:21:42.945Z,17.93
2022-12-05T09:26:46.501Z,69.07
2022-12-05T09:31:51.746Z,22.17
2022-12-05T09:37:10.210Z,18.20
2022-12-05T09:42:43.486Z,19.93
2022-12-05T09:48:12.546Z,16.77
2022-12-05T09:53:37.602Z,15.40
2022-12-05T09:58:48.781Z,16.50
2022-12-05T10:05:00.361Z,19.48
2022-12-05T10:10:28.726Z,14.07
2022-12-05T10:15:53.031Z,18.20
2022-12-05T10:21:38.729Z,19.03
2022-12-05T10:26:48.790Z,19.53
2022-12-05T10:31:57.750Z,20.40
2022-12-05T10:37:20.409Z,20.00
2022-12-05T10:42:31.631Z,19.87
2022-12-05T10:47:35.872Z,22.63
2022-12-05T10:52:38.805Z,18.10
2022-12-05T10:57:41.769Z,15.77
2022-12-05T11:02:50.259Z,17.93
2022-12-05T11:07:53.455Z,15.27
2022-12-05T11:13:00.858Z,17.07
2022-12-05T11:18:30.916Z,16.93
2022-12-05T11:23:33.862Z,16.17
2022-12-05T11:28:38.041Z,17.77
2022-12-05T11:33:41.800Z,15.93
2022-12-05T11:38:44.767Z,12.87
2022-12-05T11:44:14.726Z,17.80
2022-12-05T11:49:55.639Z,16.17
2022-12-05T11:55:12.470Z,16.93
2022-12-05T12:00:50.485Z,16.00
2022-12-05T12:05:56.356Z,14.73
2022-12-05T12:11:14.214Z,16.57
2022-12-05T12:17:01.808Z,18.13
2022-12-05T12:23:01.225Z,17.30
2022-12-05T12:28:22.503Z,18.43
2022-12-05T12:34:16.611Z,15.95
2022-12-05T12:40:03.472Z,16.87
2022-12-05T12:45:47.740Z,15.60
2022-12-05T12:50:54.824Z,14.77
2022-12-05T12:56:36.672Z,15.13
2022-12-05T13:02:12.785Z,16.90
2022-12-05T13:07:23.291Z,19.43
2022-12-05T13:12:32.665Z,17.50
2022-12-05T13:17:36.141Z,21.47
2022-12-05T13:22:39.199Z,72.73
2022-12-05T13:27:59.825Z,62.57
2022-12-05T13:33:10.224Z,23.60
2022-12-05T13:38:59.555Z,23.27
2022-12-05T13:44:12.501Z,27.67
2022-12-05T13:49:53.283Z,30.60
2022-12-05T13:55:14.535Z,24.27
2022-12-05T14:00:17.438Z,18.83
2022-12-05T14:05:25.603Z,17.27
2022-12-05T14:10:28.458Z,16.60
2022-12-05T14:15:39.474Z,20.60
2022-12-05T14:21:10.132Z,19.73
2022-12-05T14:26:39.789Z,15.87
2022-12-05T14:32:10.415Z,17.57
2022-12-05T14:37:16.295Z,19.80
2022-12-05T14:42:36.196Z,26.17
2022-12-05T14:47:39.138Z,24.83
2022-12-05T14:52:42.229Z,23.87
2022-12-05T14:57:49.196Z,24.57
2022-12-05T15:02:55.505Z,25.33
2022-12-05T15:08:00.830Z,19.00
2022-12-05T15:13:18.577Z,22.67
2022-12-05T15:18:45.830Z,21.70
2022-12-05T15:23:59.351Z,29.77
2022-12-05T15:29:08.096Z,32.93
2022-12-05T15:34:54.973Z,51.20
2022-12-05T15:40:08.209Z,27.67
2022-12-05T15:45:14.596Z,129.77
2022-12-05T15:50:53.158Z,53.70
2022-12-05T15:56:05.469Z,61.93
2022-12-05T16:01:25.797Z,38.80
2022-12-05T16:06:55.127Z,23.60
2022-12-05T16:12:17.147Z,25.47
2022-12-05T16:17:21.464Z,23.50
2022-12-05T16:22:28.678Z,21.30
2022-12-05T16:27:39.357Z,21.53
2022-12-05T16:32:45.151Z,24.77
2022-12-05T16:37:48.056Z,19.87
2022-12-05T16:43:06.443Z,23.40
2022-12-05T16:48:24.279Z,28.37
2022-12-05T16:53:35.148Z,26.83
2022-12-05T16:58:56.798Z,20.83
2022-12-05T17:03:59.915Z,29.65
2022-12-05T17:09:02.885Z,20.03
2022-12-05T17:14:07.507Z,26.77
2022-12-05T17:19:14.436Z,27.17
2022-12-05T17:24:18.901Z,26.20
2022-12-05T17:29:21.894Z,25.00
2022-12-05T17:34:24.720Z,21.77
2022-12-05T17:39:28.886Z,25.10
2022-12-05T17:44:31.966Z,25.77
2022-12-05T17:49:34.896Z,29.17
2022-12-05T17:54:37.867Z,27.30
2022-12-05T17:59:40.749Z,23.50
2022-12-05T18:04:43.710Z,25.73
2022-12-05T18:09:46.571Z,23.73
2022-12-05T18:14:49.421Z,24.63
2022-12-05T18:19:52.225Z,23.27
2022-12-05T18:24:57.330Z,22.37
2022-12-05T18:30:00.572Z,31.10
2022-12-05T18:35:08.680Z,38.53
2022-12-05T18:40:15.606Z,36.93
2022-12-05T18:45:18.433Z,28.53
2022-12-05T18:50:21.312Z,28.53
2022-12-05T18:55:44.987Z,64.77
2022-12-05T19:00:47.134Z,27.27
2022-12-05T19:05:50.131Z,31.27
2022-12-05T19:10:53.085Z,52.73
2022-12-05T19:16:03.948Z,50.20
2022-12-05T19:21:07.209Z,39.63
2022-12-05T19:26:10.723Z,48.90
2022-12-05T19:31:23.052Z,39.97
2022-12-05T19:36:30.206Z,35.10
2022-12-05T19:41:33.059Z,31.60
2022-12-05T19:46:36.602Z,30.27
2022-12-05T19:51:39.610Z,24.73
2022-12-05T19:56:42.583Z,25.63
2022-12-05T20:01:45.592Z,30.13
2022-12-05T20:06:50.013Z,33.50
2022-12-05T20:11:55.609Z,25.07
2022-12-05T20:17:00.330Z,42.30
2022-12-05T20:22:03.325Z,50.43
2022-12-05T20:27:07.400Z,40.17
2022-12-05T20:32:10.306Z,29.17
2022-12-05T20:37:13.240Z,31.83
2022-12-05T20:42:16.089Z,45.17
2022-12-05T20:47:19.062Z,34.97
2022-12-05T20:52:21.974Z,31.63
2022-12-05T20:57:24.747Z,41.77
2022-12-05T21:02:27.748Z,38.63
2022-12-05T21:07:30.642Z,43.13
2022-12-05T21:12:33.562Z,35.47
2022-12-05T21:17:36.396Z,45.63
2022-12-05T21:22:39.286Z,39.67
2022-12-05T21:27:42.100Z,36.23
2022-12-05T21:32:45.030Z,37.57
2022-12-05T21:37:47.875Z,36.97
2022-12-05T21:42:50.739Z,39.77
2022-12-05T21:47:53.904Z,38.13
2022-12-05T21:52:56.855Z,40.00
2022-12-05T21:57:59.736Z,44.20
2022-12-05T22:03:03.146Z,40.73
2022-12-05T22:08:06.787Z,36.63
2022-12-05T22:13:09.785Z,37.70
2022-12-05T22:18:12.465Z,46.17
2022-12-05T22:23:17.020Z,34.43
2022-12-05T22:28:20.396Z,38.63
2022-12-05T22:33:24.709Z,40.63
2022-12-05T22:38:32.560Z,41.93
2022-12-05T22:43:37.731Z,40.73
2022-12-05T22:48:40.952Z,38.40
2022-12-05T22:53:44.345Z,32.33
2022-12-05T22:58:47.978Z,32.80
2022-12-05T23:03:57.114Z,39.40
2022-12-05T23:09:01.290Z,30.10
2022-12-05T23:14:06.011Z,26.40
2022-12-05T23:19:08.905Z,34.60
2022-12-05T23:24:12.814Z,31.77
2022-12-05T23:29:15.735Z,37.47
2022-12-05T23:34:18.895Z,40.03
2022-12-05T23:39:21.780Z,41.73
2022-12-05T23:44:24.613Z,35.53
2022-12-05T23:49:27.623Z,31.13
2022-12-05T23:54:30.533Z,31.40
2022-12-05T23:59:33.263Z,27.33
